ADDS TAF Board (Experimental) INFO

IDs: Format: Expanded Condensed

Updated at: 0126 UTC 25 Oct 2014

KSEA - Seattle-Tacoma Intl, WA, US

Issued at 2330 UTC 24 Oct 2014
Time0053Z25/02Z25/03Z25/04Z25/05Z25/06Z25/07Z25/08Z25/09Z25/10Z25/11Z25/12Z25/13Z25/14Z
TypeOBSPRVLPRVLPRVLPRVLPRVLPRVLPRVLPRVLPRVLPRVLPRVLPRVLPRVL
VIS10>6>6>6>6>6>6>6>6>6>6>644
CIG1101501508080804040404040401313
CoverOVCOVCOVCOVCOVCOVCOVCOVCOVCOVCOVCOVCOVCOVC
FltCat--VFRVFRVFRVFRVFRVFRVFRVFRVFRVFRVFRMVFRMVFR
WX-------RA-RA-RA-RA-RA-RA-RA-RA-RA-RA BR-RA BR
WDir2010104040405050505050507070
WSpd10101010101099999988
WGst----------------------------
R16/34
XWnd32266677777788
HWnd-9-10-10-8-8-8-6-6-6-6-6-6-3-3
Raw TAF
KSEA 242330Z 2500/2606 01010KT P6SM FEW100 OVC150
  FM250400 04010KT P6SM -RA OVC080
  FM250700 05009KT P6SM -RA OVC040
  FM251300 07008KT 4SM -RA BR OVC013
  FM251800 16008KT P6SM -RA BKN020 OVC035
  FM260200 20014G22KT P6SM -RA BKN020 OVC035


Raw METAR
KSEA 250053Z 02010KT 10SM OVC110 13/08 A2987 RMK AO2 SLP121 T01330083 $

TAF Board Legend

Hazard VFR MVFR IFR LIFR
Visibility (sm) >5 3≤X≤5 1≤X<3 <1
Ceiling (100 ft) >30 10≤X≤30 5≤X<10 <5
Wind Speed (kt) <10 10≤X<20 20≤X<30 ≥30
Wind Gust (kt) <15 15≤X<25 25≤X<35 ≥35
Weather No Wx Reported VCTS,-TS,-FZRA TS,FZRA +TS,+FZRA


Page loaded:  01:26 UTC  |   06:26 PM Pacific  |   07:26 PM Mountain  |   08:26 PM Central  |   09:26 PM Eastern

 

ADVISORIES

FORECASTS

FORECASTS

OBSERVATIONS

USER TOOLS

ABOUT US